Gandhi — A8OK8 — position and weather

sailwx.info

Track history (hours):
 
Tides and Currents Weather Stations Pressure Air Temp Water Temp Dewpoint Dewpoint Depression Visibility Wind Speed Wind Dir Waves Ship Positions

Gandhi

Last reported at 2015-May-03 19:13 UTC. Time now 2015-May-03 19:56 UTC.
Position N 42°50' E 004°44'.

Length 180 m; draft 7 m.

Type: Ship. MMSI: 636013645.

Date/timePositionNaut miles runAvg speedWind from/ knotsBaromVisibWave heightAir tempDewpointWater temp
2015-May-03 19:13N 42°50' E 004°44'6914.5
2015-May-03 14:27N 41°52' E 003°53'1314.4
2015-May-03 13:34N 41°41' E 003°45'1414.4
2015-May-03 12:33N 41°29' E 003°34'1614.8
2015-May-03 11:28N 41°15' E 003°22'1514.9
2015-May-03 10:27N 41°03' E 003°11'1314.9
2015-May-03 09:33N 40°51' E 003°02'1515.0
2015-May-03 08:33N 40°39' E 002°51'1514.8
2015-May-03 07:33N 40°26' E 002°41'1614.5
2015-May-03 06:27N 40°13' E 002°29'1314.6
2015-May-03 05:33N 40°02' E 002°20'1515.4
2015-May-03 04:33N 39°49' E 002°10'1515.0
2015-May-03 03:32N 39°36' E 001°59'1515.0
2015-May-03 02:33N 39°21' E 001°56'1514.8
2015-May-03 01:33N 39°07' E 001°53'1514.4
2015-May-03 00:33N 38°52' E 001°50'1514.7
2015-May-02 23:32N 38°38' E 001°47'1414.5
2015-May-02 22:33N 38°25' E 001°38'1915.0
2015-May-02 21:19N 38°09' E 001°26'1114.6
2015-May-02 20:32N 37°59' E 001°19'1414.7
2015-May-02 19:33N 37°47' E 001°09'1514.7
2015-May-02 18:34N 37°34' E 001°00'1414.5
2015-May-02 17:33N 37°22' E 000°51'1414.4
2015-May-02 16:33N 37°09' E 000°42'1414.2
2015-May-02 15:32N 36°57' E 000°33'1413.9
2015-May-02 14:33N 36°45' E 000°24'  
2015-Apr-25 21:09N 36°07' W 000°09'1 1.5
2015-Apr-25 20:33N 36°07' W 000°10'4 1.8
2015-Apr-25 18:26N 36°07' W 000°15'2 1.9
2015-Apr-25 17:33N 36°06' W 000°17'4 1.8
2015-Apr-25 15:21N 36°06' W 000°22'14 6.0
2015-Apr-25 13:05N 36°06' W 000°05'4 1.7
2015-Apr-25 10:29N 36°05' W 000°11'2 0.1
2015-Apr-24 18:10N 36°06' W 000°08'1 0.8
2015-Apr-24 17:28N 36°06' W 000°09'1 1.3
2015-Apr-24 16:32N 36°06' W 000°10'21 1.0
2015-Apr-23 20:30N 36°24' E 000°02'  
Track history (hours):
 
Tides and Currents Weather Stations Pressure Air Temp Water Temp Dewpoint Dewpoint Depression Visibility Wind Speed Wind Dir Waves Ship Positions

Gandhi

Last reported at 2015-May-03 19:13 UTC. Time now 2015-May-03 19:56 UTC.
Position N 42°50' E 004°44'.

Length 180 m; draft 7 m.

Type: Ship. MMSI: 636013645.

Date/timePositionNaut miles runAvg speedWind from/ knotsBaromVisibWave heightAir tempDewpointWater temp
2015-May-03 19:13N 42°50' E 004°44'6914.5
2015-May-03 14:27N 41°52' E 003°53'1314.4
2015-May-03 13:34N 41°41' E 003°45'1414.4
2015-May-03 12:33N 41°29' E 003°34'1614.8
2015-May-03 11:28N 41°15' E 003°22'1514.9
2015-May-03 10:27N 41°03' E 003°11'1314.9
2015-May-03 09:33N 40°51' E 003°02'1515.0
2015-May-03 08:33N 40°39' E 002°51'1514.8
2015-May-03 07:33N 40°26' E 002°41'1614.5
2015-May-03 06:27N 40°13' E 002°29'1314.6
2015-May-03 05:33N 40°02' E 002°20'1515.4
2015-May-03 04:33N 39°49' E 002°10'1515.0
2015-May-03 03:32N 39°36' E 001°59'1515.0
2015-May-03 02:33N 39°21' E 001°56'1514.8
2015-May-03 01:33N 39°07' E 001°53'1514.4
2015-May-03 00:33N 38°52' E 001°50'1514.7
2015-May-02 23:32N 38°38' E 001°47'1414.5
2015-May-02 22:33N 38°25' E 001°38'1915.0
2015-May-02 21:19N 38°09' E 001°26'1114.6
2015-May-02 20:32N 37°59' E 001°19'1414.7
2015-May-02 19:33N 37°47' E 001°09'1514.7
2015-May-02 18:34N 37°34' E 001°00'1414.5
2015-May-02 17:33N 37°22' E 000°51'1414.4
2015-May-02 16:33N 37°09' E 000°42'1414.2
2015-May-02 15:32N 36°57' E 000°33'1413.9
2015-May-02 14:33N 36°45' E 000°24'  
2015-Apr-25 21:09N 36°07' W 000°09'1 1.5
2015-Apr-25 20:33N 36°07' W 000°10'4 1.8
2015-Apr-25 18:26N 36°07' W 000°15'2 1.9
2015-Apr-25 17:33N 36°06' W 000°17'4 1.8
2015-Apr-25 15:21N 36°06' W 000°22'14 6.0
2015-Apr-25 13:05N 36°06' W 000°05'4 1.7
2015-Apr-25 10:29N 36°05' W 000°11'2 0.1
2015-Apr-24 18:10N 36°06' W 000°08'1 0.8
2015-Apr-24 17:28N 36°06' W 000°09'1 1.3
2015-Apr-24 16:32N 36°06' W 000°10'21 1.0
2015-Apr-23 20:30N 36°24' E 000°02'  

Dump ship's entire track history